Time;durP1;ratioP1;P1;durP2;ratioP2;P2;SDS_P1;SDS_P2;PMS_P1;PMS_P2;Temp;Humidity;BMP_temperature;BMP_pressure;BME280_temperature;BME280_humidity;BME280_pressure;Samples;Min_cycle;Max_cycle;Signal;HPM_P1;HPM_P2
2021/09/11 00:01:17;;;;;;;16.27;3.83;;;;;;;;;;5068411;28;20044;-62
2021/09/11 00:03:43;;;;;;;11.63;3.07;;;;;;;;;;5071924;28;20021;-61
2021/09/11 00:06:10;;;;;;;14.57;4.23;;;;;;;;;;5071730;28;20012;-62
2021/09/11 00:08:37;;;;;;;37.73;6.70;;;;;;;;;;5071595;28;20556;-61
2021/09/11 00:11:04;;;;;;;16.07;5.77;;;;;;;;;;5074568;28;20032;-61
2021/09/11 00:13:31;;;;;;;8.70;4.30;;;;;;;;;;5089347;28;20028;-62
2021/09/11 00:15:57;;;;;;;12.57;4.70;;;;;;;;;;5086682;28;20056;-61
2021/09/11 00:18:24;;;;;;;16.60;5.23;;;;;;;;;;5086593;28;20081;-62
2021/09/11 00:20:51;;;;;;;9.00;3.53;;;;;;;;;;5086672;28;20059;-61
2021/09/11 00:23:18;;;;;;;27.53;6.67;;;;;;;;;;5087543;28;20077;-61
2021/09/11 00:25:44;;;;;;;20.20;4.07;;;;;;;;;;5091740;28;20017;-61
2021/09/11 00:28:11;;;;;;;17.20;3.60;;;;;;;;;;5091613;28;20457;-61
2021/09/11 00:30:38;;;;;;;6.37;3.27;;;;;;;;;;5091290;28;20378;-61
2021/09/11 00:33:05;;;;;;;6.67;3.00;;;;;;;;;;5091614;28;20119;-61
2021/09/11 00:35:31;;;;;;;15.27;3.87;;;;;;;;;;5090547;28;20095;-61
2021/09/11 00:37:58;;;;;;;20.67;4.27;;;;;;;;;;5086328;28;20489;-61
2021/09/11 00:40:25;;;;;;;18.40;4.40;;;;;;;;;;5086500;28;20028;-61
2021/09/11 00:42:52;;;;;;;27.17;5.50;;;;;;;;;;5069871;28;20110;-61
2021/09/11 00:45:20;;;;;;;6.60;3.10;;;;;;;;;;5070003;28;20020;-62
2021/09/11 00:47:47;;;;;;;30.57;4.20;;;;;;;;;;5074235;28;20475;-61
2021/09/11 00:50:14;;;;;;;9.20;3.00;;;;;;;;;;5075001;28;20466;-61
2021/09/11 00:52:44;;;;;;;10.10;3.30;;;;;;;;;;5074960;28;20840;-61
2021/09/11 00:55:12;;;;;;;8.00;3.13;;;;;;;;;;5074791;28;20032;-61
2021/09/11 00:57:41;;;;;;;13.67;4.73;;;;;;;;;;5073946;28;20021;-61
2021/09/11 01:00:08;;;;;;;14.67;5.93;;;;;;;;;;5069316;28;20127;-61
2021/09/11 01:02:35;;;;;;;11.40;5.10;;;;;;;;;;5068906;28;20539;-61
2021/09/11 01:05:04;;;;;;;17.43;5.70;;;;;;;;;;5069517;28;20025;-61
2021/09/11 01:07:31;;;;;;;18.20;4.43;;;;;;;;;;5069105;28;20110;-61
2021/09/11 01:09:59;;;;;;;17.53;3.80;;;;;;;;;;5074838;28;20027;-61
2021/09/11 01:12:27;;;;;;;10.13;3.60;;;;;;;;;;5091111;28;20093;-62
2021/09/11 01:14:54;;;;;;;7.60;3.70;;;;;;;;;;5094329;28;20024;-61
2021/09/11 01:17:21;;;;;;;10.53;3.40;;;;;;;;;;5094404;28;20030;-61
2021/09/11 01:19:47;;;;;;;17.53;4.73;;;;;;;;;;5094613;28;20470;-61
2021/09/11 01:22:15;;;;;;;7.90;3.07;;;;;;;;;;5089211;28;20371;-61
2021/09/11 01:24:58;;;;;;;12.93;3.33;;;;;;;;;;5089228;28;20537;-62
2021/09/11 01:27:25;;;;;;;18.60;3.77;;;;;;;;;;5089423;28;20382;-61
2021/09/11 01:29:56;;;;;;;10.23;3.23;;;;;;;;;;5088654;28;20035;-62
2021/09/11 01:32:23;;;;;;;14.13;3.77;;;;;;;;;;5094469;28;20471;-61
2021/09/11 01:34:51;;;;;;;11.20;3.57;;;;;;;;;;5094447;28;20049;-61
2021/09/11 01:37:18;;;;;;;9.27;3.63;;;;;;;;;;5094066;28;20024;-62
2021/09/11 01:39:49;;;;;;;8.10;3.17;;;;;;;;;;5094205;28;20020;-61
2021/09/11 01:42:16;;;;;;;9.63;3.33;;;;;;;;;;5076086;28;20356;-61
2021/09/11 01:45:02;;;;;;;25.77;5.27;;;;;;;;;;5068181;28;20031;-61
2021/09/11 01:47:28;;;;;;;;;;;;;;;;;;5068842;28;20094;-61
2021/09/11 01:49:55;;;;;;;14.27;3.60;;;;;;;;;;5068563;28;19904;-61
2021/09/11 01:52:22;;;;;;;6.07;3.33;;;;;;;;;;5068526;28;20074;-61
2021/09/11 01:54:48;;;;;;;7.00;2.67;;;;;;;;;;5073869;28;20371;-61
2021/09/11 01:57:15;;;;;;;4.87;2.57;;;;;;;;;;5073015;28;20028;-61
2021/09/11 01:59:42;;;;;;;4.97;2.70;;;;;;;;;;5088339;28;20366;-61
2021/09/11 02:02:09;;;;;;;38.83;4.17;;;;;;;;;;5093790;28;20028;-61
2021/09/11 02:04:36;;;;;;;15.00;3.10;;;;;;;;;;5092979;28;20027;-61
2021/09/11 02:07:04;;;;;;;15.27;3.47;;;;;;;;;;5088381;28;20470;-61
2021/09/11 02:09:32;;;;;;;9.70;3.03;;;;;;;;;;5088068;28;20024;-61
2021/09/11 02:11:59;;;;;;;21.90;4.63;;;;;;;;;;5088239;28;20024;-61
2021/09/11 02:14:25;;;;;;;50.53;7.67;;;;;;;;;;5088006;28;20032;-61
2021/09/11 02:16:52;;;;;;;32.47;3.67;;;;;;;;;;5093175;28;20012;-61
2021/09/11 02:19:19;;;;;;;9.20;3.17;;;;;;;;;;5093431;28;20063;-61
2021/09/11 02:21:46;;;;;;;33.67;7.07;;;;;;;;;;5093055;28;20020;-61
2021/09/11 02:24:13;;;;;;;25.87;4.03;;;;;;;;;;5093233;28;20024;-61
2021/09/11 02:26:40;;;;;;;8.33;2.60;;;;;;;;;;5093322;28;20023;-61
2021/09/11 02:29:07;;;;;;;11.07;2.40;;;;;;;;;;5076322;28;20052;-61
2021/09/11 02:31:34;;;;;;;12.17;2.80;;;;;;;;;;5067526;28;20064;-61
2021/09/11 02:34:01;;;;;;;45.30;4.00;;;;;;;;;;5067638;28;20035;-61
2021/09/11 02:36:27;;;;;;;8.13;2.90;;;;;;;;;;5067608;28;20109;-61
2021/09/11 02:38:54;;;;;;;10.43;2.93;;;;;;;;;;5071654;28;20021;-61
2021/09/11 02:41:21;;;;;;;5.90;3.07;;;;;;;;;;5072856;28;20070;-61
2021/09/11 02:43:48;;;;;;;12.90;3.50;;;;;;;;;;5072807;28;20029;-61
2021/09/11 02:46:15;;;;;;;9.97;2.93;;;;;;;;;;5072518;28;20052;-60
2021/09/11 02:48:42;;;;;;;8.80;3.50;;;;;;;;;;5072650;28;20028;-61
2021/09/11 02:51:09;;;;;;;7.87;3.90;;;;;;;;;;5068088;28;20028;-61
2021/09/11 02:53:35;;;;;;;18.03;3.83;;;;;;;;;;5067218;28;20085;-62
2021/09/11 02:56:02;;;;;;;9.77;4.30;;;;;;;;;;5067231;28;20745;-60
2021/09/11 02:58:29;;;;;;;8.90;3.77;;;;;;;;;;5073926;28;20027;-61
2021/09/11 03:00:56;;;;;;;9.20;3.77;;;;;;;;;;5091177;28;20052;-61
2021/09/11 03:03:22;;;;;;;13.37;3.70;;;;;;;;;;5091654;28;20032;-61
2021/09/11 03:05:49;;;;;;;8.57;3.10;;;;;;;;;;5092425;28;20049;-61
2021/09/11 03:08:16;;;;;;;14.23;3.53;;;;;;;;;;5092549;28;20028;-61
2021/09/11 03:10:43;;;;;;;20.50;3.63;;;;;;;;;;5092652;28;20028;-61
2021/09/11 03:13:09;;;;;;;7.90;3.50;;;;;;;;;;5088644;28;20076;-61
2021/09/11 03:15:36;;;;;;;13.17;4.03;;;;;;;;;;5087246;28;20031;-61
2021/09/11 03:18:03;;;;;;;14.70;3.30;;;;;;;;;;5087122;28;20034;-61
2021/09/11 03:20:30;;;;;;;13.73;3.53;;;;;;;;;;5086760;28;20020;-61
2021/09/11 03:22:57;;;;;;;5.67;3.47;;;;;;;;;;5089965;28;20028;-61
2021/09/11 03:25:23;;;;;;;9.10;3.30;;;;;;;;;;5092401;28;20103;-61
2021/09/11 03:27:50;;;;;;;7.37;3.07;;;;;;;;;;5088829;28;20037;-61
2021/09/11 03:30:17;;;;;;;8.10;3.10;;;;;;;;;;5072016;28;20471;-61
2021/09/11 03:32:44;;;;;;;8.23;3.07;;;;;;;;;;5072107;28;20017;-61
2021/09/11 03:35:10;;;;;;;5.83;3.20;;;;;;;;;;5069025;28;20383;-61
2021/09/11 03:37:37;;;;;;;7.80;2.90;;;;;;;;;;5066395;28;20035;-61
2021/09/11 03:40:05;;;;;;;28.37;5.77;;;;;;;;;;5066683;28;20078;-61
2021/09/11 03:42:31;;;;;;;5.83;2.90;;;;;;;;;;5066942;28;20036;-61
2021/09/11 03:44:58;;;;;;;15.23;3.53;;;;;;;;;;5069279;28;20045;-61
2021/09/11 03:47:25;;;;;;;24.30;4.07;;;;;;;;;;5071739;28;20017;-61
2021/09/11 03:49:52;;;;;;;68.53;7.97;;;;;;;;;;5072015;28;20467;-61
2021/09/11 03:52:19;;;;;;;26.40;3.77;;;;;;;;;;5071909;28;20487;-61
2021/09/11 03:54:45;;;;;;;17.63;3.97;;;;;;;;;;5071867;28;20029;-61
2021/09/11 03:57:12;;;;;;;5.63;2.80;;;;;;;;;;5069306;28;20297;-61
2021/09/11 03:59:39;;;;;;;9.73;3.03;;;;;;;;;;5086176;28;20103;-61
2021/09/11 04:02:06;;;;;;;29.70;5.60;;;;;;;;;;5086683;28;20024;-61
2021/09/11 04:04:33;;;;;;;27.43;4.67;;;;;;;;;;5086584;28;20028;-61
2021/09/11 04:06:59;;;;;;;14.63;3.20;;;;;;;;;;5088555;28;20016;-61
2021/09/11 04:09:26;;;;;;;57.67;4.50;;;;;;;;;;5091488;28;20028;-61
2021/09/11 04:11:53;;;;;;;11.90;3.40;;;;;;;;;;5092347;28;20367;-61
2021/09/11 04:14:20;;;;;;;10.07;2.90;;;;;;;;;;5089679;28;20024;-61
2021/09/11 04:16:46;;;;;;;12.73;4.30;;;;;;;;;;5073520;28;20096;-61
2021/09/11 04:19:13;;;;;;;9.00;3.03;;;;;;;;;;5073565;28;20368;-61
2021/09/11 04:21:40;;;;;;;6.73;2.90;;;;;;;;;;5069805;28;20024;-61
2021/09/11 04:24:07;;;;;;;5.03;3.40;;;;;;;;;;5070157;28;20063;-60
2021/09/11 04:26:36;;;;;;;5.47;2.87;;;;;;;;;;5069664;28;20021;-61
2021/09/11 04:29:05;;;;;;;7.07;3.33;;;;;;;;;;5086459;28;20146;-61
2021/09/11 04:31:32;;;;;;;9.07;2.73;;;;;;;;;;5095618;28;20502;-61
2021/09/11 04:33:59;;;;;;;5.50;2.50;;;;;;;;;;5095602;28;20059;-61
2021/09/11 04:36:26;;;;;;;4.60;2.90;;;;;;;;;;5095464;28;20039;-61
2021/09/11 04:38:53;;;;;;;9.13;3.00;;;;;;;;;;5095323;28;20111;-61
2021/09/11 04:41:19;;;;;;;5.90;3.03;;;;;;;;;;5093513;28;20036;-61
2021/09/11 04:43:46;;;;;;;6.17;2.90;;;;;;;;;;5089938;28;20032;-61
2021/09/11 04:46:13;;;;;;;6.73;2.73;;;;;;;;;;5090018;28;20031;-61
2021/09/11 04:48:40;;;;;;;6.90;2.63;;;;;;;;;;5076697;28;20047;-61
2021/09/11 04:51:07;;;;;;;9.80;3.23;;;;;;;;;;5070218;28;20052;-61
2021/09/11 04:53:33;;;;;;;5.77;2.70;;;;;;;;;;5074668;28;20103;-61
2021/09/11 04:56:00;;;;;;;10.20;3.27;;;;;;;;;;5074714;28;20478;-61
2021/09/11 04:58:27;;;;;;;48.10;6.20;;;;;;;;;;5074356;28;20522;-61
2021/09/11 05:00:54;;;;;;;7.47;2.87;;;;;;;;;;5074970;28;20020;-61
2021/09/11 05:03:20;;;;;;;11.17;4.00;;;;;;;;;;5073657;28;20031;-61
2021/09/11 05:05:47;;;;;;;17.93;4.23;;;;;;;;;;5069574;28;20548;-61
2021/09/11 05:08:17;;;;;;;5.70;3.20;;;;;;;;;;5069391;28;20063;-61
2021/09/11 05:10:45;;;;;;;6.07;3.00;;;;;;;;;;5069434;28;20029;-61
2021/09/11 05:13:12;;;;;;;7.23;3.23;;;;;;;;;;5068950;28;20103;-61
2021/09/11 05:15:39;;;;;;;14.20;3.10;;;;;;;;;;5088414;28;20085;-61
2021/09/11 05:18:05;;;;;;;9.57;3.93;;;;;;;;;;5094719;28;20046;-61
2021/09/11 05:20:32;;;;;;;5.83;3.10;;;;;;;;;;5094540;28;20046;-61
2021/09/11 05:22:59;;;;;;;9.10;2.87;;;;;;;;;;5094492;28;20052;-61
2021/09/11 05:25:26;;;;;;;5.47;2.90;;;;;;;;;;5094268;28;20035;-60
2021/09/11 05:27:53;;;;;;;5.37;3.07;;;;;;;;;;5088752;28;20471;-60
2021/09/11 05:30:20;;;;;;;33.87;4.30;;;;;;;;;;5089078;28;20036;-61
2021/09/11 05:32:47;;;;;;;6.43;2.87;;;;;;;;;;5085406;28;20027;-60
2021/09/11 05:35:13;;;;;;;6.43;2.70;;;;;;;;;;5068793;28;20099;-61
2021/09/11 05:37:40;;;;;;;4.87;2.80;;;;;;;;;;5073774;28;20020;-60
2021/09/11 05:40:07;;;;;;;5.43;2.80;;;;;;;;;;5073707;28;20028;-61
2021/09/11 05:42:36;;;;;;;7.10;2.87;;;;;;;;;;5074455;28;20375;-60
2021/09/11 05:45:05;;;;;;;6.70;3.77;;;;;;;;;;5073309;28;20033;-60
2021/09/11 05:47:32;;;;;;;8.17;2.60;;;;;;;;;;5073351;28;20035;-61
2021/09/11 05:49:59;;;;;;;7.67;2.20;;;;;;;;;;5068743;28;20025;-61
2021/09/11 05:52:26;;;;;;;10.20;3.47;;;;;;;;;;5068605;28;20408;-60
2021/09/11 05:54:52;;;;;;;6.60;2.93;;;;;;;;;;5068765;28;20021;-60
2021/09/11 05:57:19;;;;;;;5.67;2.80;;;;;;;;;;5068485;28;20479;-61
2021/09/11 05:59:46;;;;;;;6.17;3.00;;;;;;;;;;5072356;28;20025;-61
2021/09/11 06:02:13;;;;;;;5.20;2.60;;;;;;;;;;5073574;28;20472;-61
2021/09/11 06:04:40;;;;;;;7.93;2.90;;;;;;;;;;5090106;28;20107;-60
2021/09/11 06:07:06;;;;;;;8.97;3.77;;;;;;;;;;5093695;28;20027;-60
2021/09/11 06:09:34;;;;;;;7.23;2.63;;;;;;;;;;5093458;28;20448;-61
2021/09/11 06:12:01;;;;;;;12.07;3.27;;;;;;;;;;5088942;28;20043;-61
2021/09/11 06:14:28;;;;;;;10.77;2.70;;;;;;;;;;5088325;28;20449;-60
2021/09/11 06:16:55;;;;;;;9.70;3.60;;;;;;;;;;5087992;28;20020;-61
2021/09/11 06:19:22;;;;;;;6.53;2.77;;;;;;;;;;5071073;28;20356;-61
2021/09/11 06:21:49;;;;;;;9.47;3.80;;;;;;;;;;5071589;28;20107;-60
2021/09/11 06:24:15;;;;;;;7.83;2.93;;;;;;;;;;5073233;28;20028;-60
2021/09/11 06:26:42;;;;;;;5.43;3.30;;;;;;;;;;5073130;28;20054;-60
2021/09/11 06:29:09;;;;;;;5.97;2.80;;;;;;;;;;5072873;28;20041;-60
2021/09/11 06:31:36;;;;;;;7.60;3.17;;;;;;;;;;5072999;28;20028;-60
2021/09/11 06:34:03;;;;;;;8.07;2.77;;;;;;;;;;5068755;28;20542;-60
2021/09/11 06:36:29;;;;;;;7.40;3.37;;;;;;;;;;5067885;28;20024;-61
2021/09/11 06:38:56;;;;;;;5.10;3.07;;;;;;;;;;5075312;28;20445;-60
2021/09/11 06:41:23;;;;;;;5.10;3.03;;;;;;;;;;5088054;28;20028;-61
2021/09/11 06:43:50;;;;;;;6.13;3.53;;;;;;;;;;5091035;28;20024;-61
2021/09/11 06:46:17;;;;;;;8.17;3.10;;;;;;;;;;5092927;28;20084;-61
2021/09/11 06:48:44;;;;;;;8.00;3.27;;;;;;;;;;5092511;28;20032;-61
2021/09/11 06:51:14;;;;;;;6.00;2.97;;;;;;;;;;5093029;28;20386;-61
2021/09/11 06:53:41;;;;;;;8.07;3.20;;;;;;;;;;5092932;28;20505;-61
2021/09/11 06:56:07;;;;;;;6.83;3.20;;;;;;;;;;5088926;28;20479;-60
2021/09/11 06:58:34;;;;;;;6.60;3.60;;;;;;;;;;5083153;28;20126;-61
2021/09/11 07:01:01;;;;;;;7.73;2.77;;;;;;;;;;5067520;28;20056;-61
2021/09/11 07:03:28;;;;;;;4.37;2.80;;;;;;;;;;5067099;28;20506;-60
2021/09/11 07:05:54;;;;;;;5.50;2.80;;;;;;;;;;5070005;28;20033;-61
2021/09/11 07:08:21;;;;;;;7.13;2.87;;;;;;;;;;5072405;28;20368;-61
2021/09/11 07:10:48;;;;;;;5.80;3.30;;;;;;;;;;5072556;28;20356;-61
2021/09/11 07:13:15;;;;;;;6.23;3.57;;;;;;;;;;5073583;28;20094;-61
2021/09/11 07:15:43;;;;;;;5.03;2.67;;;;;;;;;;5092551;28;20024;-61
2021/09/11 07:18:10;;;;;;;10.60;3.27;;;;;;;;;;5071112;28;20035;-61
2021/09/11 07:20:36;;;;;;;5.33;2.87;;;;;;;;;;5086951;28;20462;-61
2021/09/11 07:23:03;;;;;;;4.47;2.83;;;;;;;;;;5087054;28;20031;-61
2021/09/11 07:25:29;;;;;;;8.80;3.77;;;;;;;;;;5087309;28;20877;-60
2021/09/11 07:27:56;;;;;;;7.63;2.87;;;;;;;;;;5089590;28;20069;-61
2021/09/11 07:30:23;;;;;;;5.40;2.80;;;;;;;;;;5092280;28;20027;-61
2021/09/11 07:32:50;;;;;;;6.07;3.17;;;;;;;;;;5092609;28;20028;-61
2021/09/11 07:35:17;;;;;;;8.97;3.17;;;;;;;;;;5091919;28;20486;-62
2021/09/11 07:37:44;;;;;;;6.17;2.90;;;;;;;;;;5085526;28;20025;-61
2021/09/11 07:40:11;;;;;;;5.17;3.43;;;;;;;;;;5069412;28;20032;-60
2021/09/11 07:42:38;;;;;;;7.33;3.43;;;;;;;;;;5066859;28;20031;-61
2021/09/11 07:45:06;;;;;;;6.70;3.37;;;;;;;;;;5066848;28;20020;-61
2021/09/11 07:47:33;;;;;;;5.10;2.90;;;;;;;;;;5066410;28;20035;-61
2021/09/11 07:50:00;;;;;;;8.90;3.47;;;;;;;;;;5069418;28;20016;-60
2021/09/11 07:52:26;;;;;;;7.70;3.03;;;;;;;;;;5075925;28;20486;-60
2021/09/11 07:54:53;;;;;;;5.70;3.43;;;;;;;;;;5076008;28;20633;-61
2021/09/11 07:57:20;;;;;;;5.30;3.30;;;;;;;;;;5076051;28;20025;-61
2021/09/11 07:59:46;;;;;;;11.00;4.37;;;;;;;;;;5075806;28;20032;-61
2021/09/11 08:02:13;;;;;;;6.77;3.17;;;;;;;;;;5073844;28;20119;-60
2021/09/11 08:04:40;;;;;;;7.43;3.10;;;;;;;;;;5084037;28;20036;-60
2021/09/11 08:07:07;;;;;;;7.50;2.97;;;;;;;;;;5090105;28;20059;-60
2021/09/11 08:09:33;;;;;;;6.80;2.80;;;;;;;;;;5090841;28;20028;-61
2021/09/11 08:12:00;;;;;;;4.37;2.60;;;;;;;;;;5092094;28;20099;-60
2021/09/11 08:14:27;;;;;;;8.50;3.20;;;;;;;;;;5095981;28;20031;-61
2021/09/11 08:16:54;;;;;;;6.13;3.13;;;;;;;;;;5095949;28;20084;-60
2021/09/11 08:19:21;;;;;;;4.20;3.00;;;;;;;;;;5095611;28;20111;-61
2021/09/11 08:21:48;;;;;;;5.50;2.90;;;;;;;;;;5095710;28;20054;-60
2021/09/11 08:24:14;;;;;;;4.97;3.07;;;;;;;;;;5093891;28;20382;-60
2021/09/11 08:26:41;;;;;;;3.63;2.60;;;;;;;;;;5090594;28;20024;-61
2021/09/11 08:29:08;;;;;;;6.50;3.20;;;;;;;;;;5090201;28;20038;-60
2021/09/11 08:31:35;;;;;;;6.23;3.63;;;;;;;;;;5090408;28;20032;-61
2021/09/11 08:34:02;;;;;;;4.50;3.27;;;;;;;;;;5081424;28;20060;-60
2021/09/11 08:36:28;;;;;;;14.03;5.90;;;;;;;;;;5075228;28;20432;-60
2021/09/11 08:38:56;;;;;;;9.23;3.47;;;;;;;;;;5075146;28;20028;-60
2021/09/11 08:41:23;;;;;;;6.67;3.23;;;;;;;;;;5076096;28;20028;-60
2021/09/11 08:43:50;;;;;;;7.43;3.40;;;;;;;;;;5074845;28;20033;-61
2021/09/11 08:46:17;;;;;;;8.60;3.70;;;;;;;;;;5074149;28;20025;-61
2021/09/11 08:48:44;;;;;;;4.60;3.07;;;;;;;;;;5069756;28;20054;-61
2021/09/11 08:51:10;;;;;;;6.77;3.50;;;;;;;;;;5069910;28;20399;-60
2021/09/11 08:53:37;;;;;;;6.30;3.50;;;;;;;;;;5069695;28;20567;-61
2021/09/11 08:56:04;;;;;;;5.60;3.23;;;;;;;;;;5069569;28;20464;-61
2021/09/11 08:58:31;;;;;;;7.10;2.80;;;;;;;;;;5074737;28;20039;-61
2021/09/11 09:01:00;;;;;;;4.33;3.03;;;;;;;;;;5074556;28;20349;-61
2021/09/11 09:03:37;;;;;;;7.30;3.30;;;;;;;;;;5079243;28;20024;-61
2021/09/11 09:06:14;;;;;;;8.47;3.20;;;;;;;;;;5094971;28;20056;-61
2021/09/11 09:08:41;;;;;;;5.63;3.27;;;;;;;;;;5092980;28;20032;-61
2021/09/11 09:11:18;;;;;;;5.97;3.30;;;;;;;;;;5089545;28;20224;-61
2021/09/11 09:13:55;;;;;;;5.80;3.47;;;;;;;;;;5089626;28;20431;-60
2021/09/11 09:16:23;;;;;;;6.60;3.13;;;;;;;;;;5089605;28;20452;-60
2021/09/11 09:18:50;;;;;;;6.97;3.27;;;;;;;;;;5090333;28;20028;-60
2021/09/11 09:21:28;;;;;;;5.80;3.00;;;;;;;;;;5094673;28;20020;-61
2021/09/11 09:24:02;;;;;;;5.07;3.07;;;;;;;;;;5094400;28;20028;-61
2021/09/11 09:26:29;;;;;;;7.70;3.53;;;;;;;;;;5094699;28;20020;-61
2021/09/11 09:29:22;;;;;;;4.97;2.90;;;;;;;;;;5094383;28;20032;-60
2021/09/11 09:31:50;;;;;;;5.53;3.33;;;;;;;;;;5066822;28;20040;-60
2021/09/11 09:34:30;;;;;;;4.13;3.10;;;;;;;;;;5069082;28;20514;-61
2021/09/11 09:36:58;;;;;;;5.67;3.07;;;;;;;;;;5068776;28;20099;-61
2021/09/11 09:39:25;;;;;;;4.90;3.20;;;;;;;;;;5068709;28;20025;-60
2021/09/11 09:41:52;;;;;;;7.73;3.47;;;;;;;;;;5071755;28;20021;-61
2021/09/11 09:44:21;;;;;;;7.00;3.60;;;;;;;;;;5074062;28;20441;-61
2021/09/11 09:46:49;;;;;;;3.97;2.90;;;;;;;;;;5073800;28;20430;-61
2021/09/11 09:49:25;;;;;;;4.87;3.33;;;;;;;;;;5073894;28;20090;-60
2021/09/11 09:51:52;;;;;;;5.57;3.30;;;;;;;;;;5073709;28;20055;-60
2021/09/11 09:54:20;;;;;;;6.23;3.50;;;;;;;;;;5070083;28;20025;-60
2021/09/11 09:56:46;;;;;;;4.57;3.33;;;;;;;;;;5068484;28;20029;-61
2021/09/11 09:59:13;;;;;;;7.93;2.93;;;;;;;;;;5068465;28;20420;-60
2021/09/11 10:01:40;;;;;;;6.53;2.83;;;;;;;;;;5068528;28;20407;-60
2021/09/11 10:04:14;;;;;;;10.63;3.10;;;;;;;;;;5071207;28;20036;-60
2021/09/11 10:06:41;;;;;;;6.50;3.30;;;;;;;;;;5073658;28;20021;-61
2021/09/11 10:09:10;;;;;;;7.13;3.73;;;;;;;;;;5073585;28;20033;-61
2021/09/11 10:11:38;;;;;;;12.13;3.93;;;;;;;;;;5073369;28;20028;-60
2021/09/11 10:14:15;;;;;;;12.97;3.70;;;;;;;;;;5073572;28;20120;-60
2021/09/11 10:16:43;;;;;;;6.80;3.43;;;;;;;;;;5068963;28;20502;-60
2021/09/11 10:19:23;;;;;;;5.37;3.60;;;;;;;;;;5068012;28;20108;-60
2021/09/11 10:21:50;;;;;;;9.17;3.73;;;;;;;;;;5068212;28;20074;-61
2021/09/11 10:24:24;;;;;;;6.63;4.40;;;;;;;;;;5067992;28;20025;-60
2021/09/11 10:26:59;;;;;;;5.07;3.67;;;;;;;;;;5071773;28;20071;-60
2021/09/11 10:29:34;;;;;;;5.68;4.05;;;;;;;;;;5074618;28;20036;-60
2021/09/11 10:32:08;;;;;;;7.17;3.70;;;;;;;;;;5093267;28;20410;-61
2021/09/11 10:34:52;;;;;;;17.20;3.80;;;;;;;;;;5093351;28;20552;-61
2021/09/11 10:37:29;;;;;;;10.20;3.93;;;;;;;;;;5092813;28;20257;-61
2021/09/11 10:40:15;;;;;;;6.40;3.40;;;;;;;;;;5087895;28;20521;-60
2021/09/11 10:43:01;;;;;;;12.65;4.05;;;;;;;;;;5087825;28;20027;-60
2021/09/11 10:45:46;;;;;;;5.70;3.57;;;;;;;;;;5088010;28;20066;-60
2021/09/11 10:48:33;;;;;;;7.47;3.35;;;;;;;;;;5089684;28;20479;-60
2021/09/11 10:51:19;;;;;;;6.47;3.77;;;;;;;;;;5092981;28;20043;-61
2021/09/11 10:53:57;;;;;;;6.50;4.20;;;;;;;;;;5092537;28;20498;-61
2021/09/11 10:56:25;;;;;;;27.33;6.57;;;;;;;;;;5092780;28;20417;-61
2021/09/11 10:59:10;;;;;;;6.73;3.90;;;;;;;;;;5092556;28;20162;-60
2021/09/11 11:01:55;;;;;;;7.13;4.10;;;;;;;;;;5068028;28;20064;-61
2021/09/11 11:04:26;;;;;;;11.65;4.43;;;;;;;;;;5067090;28;20507;-60
2021/09/11 11:06:54;;;;;;;9.30;3.40;;;;;;;;;;5067401;28;20107;-60
2021/09/11 11:09:20;;;;;;;8.30;4.10;;;;;;;;;;5067104;28;20437;-60
2021/09/11 11:11:51;;;;;;;15.97;4.03;;;;;;;;;;5071757;28;20028;-60
2021/09/11 11:14:18;;;;;;;25.00;4.77;;;;;;;;;;5072487;28;20020;-60
2021/09/11 11:16:54;;;;;;;8.93;4.73;;;;;;;;;;5072326;28;20029;-60
2021/09/11 11:19:28;;;;;;;13.93;3.47;;;;;;;;;;5071948;28;20468;-61
2021/09/11 11:22:00;;;;;;;6.93;3.60;;;;;;;;;;5075485;28;20446;-60
2021/09/11 11:24:46;;;;;;;7.40;3.93;;;;;;;;;;5087039;28;20027;-60
2021/09/11 11:27:17;;;;;;;6.43;4.07;;;;;;;;;;5087333;28;20342;-60
2021/09/11 11:29:45;;;;;;;24.60;6.30;;;;;;;;;;5087181;28;20467;-60
2021/09/11 11:32:12;;;;;;;11.97;4.00;;;;;;;;;;5087884;28;20479;-60
2021/09/11 11:34:39;;;;;;;14.90;4.80;;;;;;;;;;5092372;28;20016;-61
2021/09/11 11:37:07;;;;;;;10.50;3.47;;;;;;;;;;5092336;28;20081;-60
2021/09/11 11:39:35;;;;;;;9.90;3.83;;;;;;;;;;5092246;28;20074;-60
2021/09/11 11:42:04;;;;;;;44.20;8.40;;;;;;;;;;5091747;28;20133;-60
2021/09/11 11:44:32;;;;;;;5.30;2.10;;;;;;;;;;5091151;28;20077;-60
2021/09/11 11:47:12;;;;;;;8.77;3.07;;;;;;;;;;5087016;28;20036;-60
2021/09/11 11:49:40;;;;;;;3.73;2.10;;;;;;;;;;5086856;28;20361;-60
2021/09/11 11:52:08;;;;;;;19.50;3.00;;;;;;;;;;5080436;28;20029;-60
2021/09/11 11:54:35;;;;;;;5.23;2.20;;;;;;;;;;5067503;28;20092;-60
2021/09/11 11:57:11;;;;;;;6.83;1.83;;;;;;;;;;5072119;28;20029;-60
2021/09/11 11:59:38;;;;;;;9.50;1.80;;;;;;;;;;5071785;28;20026;-60
2021/09/11 12:02:20;;;;;;;3.00;1.50;;;;;;;;;;5071786;28;20028;-60
2021/09/11 12:04:47;;;;;;;2.43;1.50;;;;;;;;;;5071383;28;20062;-60
2021/09/11 12:18:57;;;;;;;5.93;2.00;;;;;;;;;;5063966;27;2671221;-59
2021/09/11 12:21:24;;;;;;;6.50;1.70;;;;;;;;;;5097766;28;20036;-58
2021/09/11 12:23:52;;;;;;;2.80;1.90;;;;;;;;;;5104326;28;20047;-58
2021/09/11 12:26:29;;;;;;;3.00;1.70;;;;;;;;;;5104248;28;20066;-58
2021/09/11 12:29:04;;;;;;;6.03;2.00;;;;;;;;;;5104891;28;20051;-58
2021/09/11 12:31:33;;;;;;;9.47;2.30;;;;;;;;;;5109842;28;20466;-58
2021/09/11 12:34:05;;;;;;;3.80;2.33;;;;;;;;;;5109310;28;20437;-58
2021/09/11 12:36:31;;;;;;;3.70;2.20;;;;;;;;;;5109541;28;20028;-58
2021/09/11 12:39:00;;;;;;;3.43;2.17;;;;;;;;;;5109281;28;20069;-58
2021/09/11 12:41:27;;;;;;;4.27;2.27;;;;;;;;;;5107377;28;20470;-58
2021/09/11 12:43:54;;;;;;;5.63;2.40;;;;;;;;;;5104419;28;20440;-58
2021/09/11 12:46:31;;;;;;;4.53;2.10;;;;;;;;;;5103764;28;20028;-58
2021/09/11 12:48:58;;;;;;;7.43;2.47;;;;;;;;;;5104361;28;20036;-59
2021/09/11 12:51:25;;;;;;;27.57;2.93;;;;;;;;;;5105323;28;20027;-58
2021/09/11 12:53:52;;;;;;;5.60;2.03;;;;;;;;;;5109407;28;20028;-58
2021/09/11 12:56:22;;;;;;;19.30;3.50;;;;;;;;;;5108969;28;20061;-58
2021/09/11 12:58:52;;;;;;;4.23;2.00;;;;;;;;;;5109100;28;20024;-58
2021/09/11 13:01:19;;;;;;;7.67;2.07;;;;;;;;;;5108423;28;20474;-58
2021/09/11 13:03:46;;;;;;;5.97;1.80;;;;;;;;;;5106890;28;20441;-59
2021/09/11 13:06:14;;;;;;;17.50;2.80;;;;;;;;;;5103873;28;20466;-58
2021/09/11 13:08:42;;;;;;;10.43;2.80;;;;;;;;;;5103421;28;20028;-58
2021/09/11 13:11:13;;;;;;;11.43;2.80;;;;;;;;;;5103940;28;20044;-58
2021/09/11 13:13:40;;;;;;;2.60;1.80;;;;;;;;;;5105000;28;20477;-58
2021/09/11 13:16:07;;;;;;;6.60;2.37;;;;;;;;;;5108547;28;20370;-58
2021/09/11 13:18:35;;;;;;;3.97;1.77;;;;;;;;;;5101804;28;20032;-58
2021/09/11 13:21:08;;;;;;;9.60;2.30;;;;;;;;;;5095095;28;20031;-58
2021/09/11 13:23:36;;;;;;;10.00;2.57;;;;;;;;;;5095175;28;20047;-58
2021/09/11 13:26:03;;;;;;;9.47;1.90;;;;;;;;;;5093009;28;20025;-58
2021/09/11 13:28:30;;;;;;;6.13;1.93;;;;;;;;;;5089518;28;20111;-58
2021/09/11 13:30:57;;;;;;;25.77;3.93;;;;;;;;;;5089903;28;20028;-58
2021/09/11 13:33:24;;;;;;;28.10;4.33;;;;;;;;;;5089833;28;20479;-58
2021/09/11 13:35:51;;;;;;;27.30;4.53;;;;;;;;;;5091226;28;20024;-58
2021/09/11 13:38:17;;;;;;;40.07;5.80;;;;;;;;;;5094296;28;20020;-58
2021/09/11 13:40:44;;;;;;;5.63;2.33;;;;;;;;;;5094978;28;20090;-58
2021/09/11 13:43:11;;;;;;;6.87;1.63;;;;;;;;;;5094702;28;20056;-58
2021/09/11 13:45:38;;;;;;;4.03;1.70;;;;;;;;;;5094934;28;20047;-58
2021/09/11 13:48:04;;;;;;;6.03;2.00;;;;;;;;;;5092752;28;20032;-59
2021/09/11 13:50:31;;;;;;;45.70;4.07;;;;;;;;;;5088788;28;20046;-59
2021/09/11 13:52:58;;;;;;;7.40;2.87;;;;;;;;;;5089407;28;20097;-58
2021/09/11 13:55:25;;;;;;;4.50;2.37;;;;;;;;;;5089265;28;20377;-59
2021/09/11 13:57:51;;;;;;;4.27;2.43;;;;;;;;;;5090186;28;20490;-58
2021/09/11 14:00:18;;;;;;;7.27;3.67;;;;;;;;;;5093825;28;20032;-58
2021/09/11 14:02:45;;;;;;;10.73;3.03;;;;;;;;;;5094447;28;20094;-58
2021/09/11 14:05:12;;;;;;;5.70;2.37;;;;;;;;;;5094463;28;20024;-58
2021/09/11 14:07:39;;;;;;;6.93;2.53;;;;;;;;;;5094229;28;20110;-58
2021/09/11 14:10:06;;;;;;;10.20;2.60;;;;;;;;;;5092906;28;20361;-59
2021/09/11 14:12:33;;;;;;;6.53;2.33;;;;;;;;;;5088451;28;20105;-59
2021/09/11 14:14:59;;;;;;;4.73;2.50;;;;;;;;;;5088733;28;20047;-59
2021/09/11 14:17:29;;;;;;;5.73;2.50;;;;;;;;;;5089152;28;20100;-58
2021/09/11 14:19:57;;;;;;;4.53;2.60;;;;;;;;;;5088754;28;20028;-58
2021/09/11 14:22:24;;;;;;;5.57;2.40;;;;;;;;;;5093885;28;20016;-59
2021/09/11 14:24:50;;;;;;;3.10;2.13;;;;;;;;;;5093775;28;20024;-58
2021/09/11 14:27:17;;;;;;;8.23;2.30;;;;;;;;;;5093582;28;20028;-59
2021/09/11 14:29:44;;;;;;;6.77;2.00;;;;;;;;;;5092501;28;20020;-58
2021/09/11 14:32:11;;;;;;;3.17;1.80;;;;;;;;;;5093208;28;20024;-59
2021/09/11 14:34:41;;;;;;;3.97;2.10;;;;;;;;;;5088783;28;20091;-58
2021/09/11 14:37:08;;;;;;;8.97;3.87;;;;;;;;;;5088233;28;20016;-59
2021/09/11 14:39:35;;;;;;;5.43;2.13;;;;;;;;;;5088244;28;20028;-59
2021/09/11 14:42:02;;;;;;;5.73;2.13;;;;;;;;;;5088373;28;20475;-59
2021/09/11 14:44:29;;;;;;;2.87;1.90;;;;;;;;;;5093414;28;20028;-59
2021/09/11 14:46:56;;;;;;;8.13;2.10;;;;;;;;;;5093316;28;20064;-58
2021/09/11 14:49:23;;;;;;;4.53;2.03;;;;;;;;;;5093147;28;20374;-59
2021/09/11 14:51:50;;;;;;;5.13;2.03;;;;;;;;;;5093230;28;20028;-58
2021/09/11 14:54:17;;;;;;;4.90;1.83;;;;;;;;;;5093201;28;20020;-60
2021/09/11 14:56:44;;;;;;;13.57;1.97;;;;;;;;;;5087966;28;20035;-58